createdAt,value
2023-03-11T00:01:52.222Z,100.00
2023-03-11T00:06:54.113Z,100.00
2023-03-11T00:11:55.792Z,100.00
2023-03-11T00:16:58.904Z,100.00
2023-03-11T00:22:02.284Z,100.00
2023-03-11T00:27:04.446Z,100.00
2023-03-11T00:32:07.857Z,100.00
2023-03-11T00:37:12.051Z,100.00
2023-03-11T00:42:13.797Z,100.00
2023-03-11T00:47:17.086Z,100.00
2023-03-11T00:52:18.958Z,100.00
2023-03-11T00:57:20.792Z,100.00
2023-03-11T01:02:23.873Z,100.00
2023-03-11T01:07:25.618Z,100.00
2023-03-11T01:12:27.465Z,100.00
2023-03-11T01:17:30.613Z,100.00
2023-03-11T01:22:32.697Z,100.00
2023-03-11T01:27:34.510Z,100.00
2023-03-11T01:32:37.832Z,100.00
2023-03-11T01:37:39.596Z,100.00
2023-03-11T01:42:41.396Z,100.00
2023-03-11T01:47:44.608Z,100.00
2023-03-11T01:52:46.760Z,100.00
2023-03-11T01:57:49.055Z,100.00
2023-03-11T02:02:52.804Z,100.00
2023-03-11T02:07:55.671Z,100.00
2023-03-11T02:13:02.924Z,100.00
2023-03-11T02:18:06.928Z,100.00
2023-03-11T02:23:08.872Z,100.00
2023-03-11T02:28:13.290Z,100.00
2023-03-11T02:33:15.249Z,100.00
2023-03-11T02:38:19.245Z,100.00
2023-03-11T02:43:25.289Z,100.00
2023-03-11T02:48:27.638Z,100.00
2023-03-11T02:53:31.719Z,100.00
2023-03-11T02:58:34.941Z,100.00
2023-03-11T03:03:36.808Z,100.00
2023-03-11T03:08:38.891Z,100.00
2023-03-11T03:13:42.373Z,100.00
2023-03-11T03:18:44.156Z,100.00
2023-03-11T03:23:46.070Z,100.00
2023-03-11T03:28:49.244Z,100.00
2023-03-11T03:33:51.228Z,100.00
2023-03-11T03:38:54.298Z,100.00
2023-03-11T03:43:58.249Z,100.00
2023-03-11T03:49:00.464Z,100.00
2023-03-11T03:54:04.637Z,100.00
2023-03-11T03:59:07.782Z,100.00
2023-03-11T04:04:15.270Z,100.00
2023-03-11T04:09:17.382Z,100.00
2023-03-11T04:14:21.711Z,100.00
2023-03-11T04:19:30.898Z,100.00
2023-03-11T04:24:32.944Z,100.00
2023-03-11T04:29:37.423Z,100.00
2023-03-11T04:34:39.374Z,100.00
2023-03-11T04:39:41.256Z,100.00
2023-03-11T04:44:44.730Z,100.00
2023-03-11T04:49:46.588Z,100.00
2023-03-11T04:54:48.485Z,100.00
2023-03-11T04:59:51.735Z,100.00
2023-03-11T05:04:53.609Z,100.00
2023-03-11T05:09:55.572Z,100.00
2023-03-11T05:14:59.421Z,100.00
2023-03-11T05:20:01.491Z,100.00
2023-03-11T05:25:07.937Z,100.00
2023-03-11T05:30:15.175Z,100.00
2023-03-11T05:35:18.782Z,100.00
2023-03-11T05:40:20.894Z,100.00
2023-03-11T05:45:24.735Z,100.00
2023-03-11T05:50:28.048Z,100.00
2023-03-11T05:55:30.692Z,100.00
2023-03-11T06:00:34.063Z,100.00
2023-03-11T06:05:44.621Z,100.00
2023-03-11T06:10:48.848Z,100.00
2023-03-11T06:15:53.263Z,100.00
2023-03-11T06:20:58.050Z,100.00
2023-03-11T06:26:00.865Z,100.00
2023-03-11T06:31:09.913Z,100.00
2023-03-11T06:36:12.960Z,100.00
2023-03-11T06:41:14.814Z,100.00
2023-03-11T06:46:18.950Z,100.00
2023-03-11T06:51:21.582Z,100.00
2023-03-11T06:56:24.161Z,100.00
2023-03-11T07:01:35.493Z,100.00
2023-03-11T07:06:41.343Z,100.00
2023-03-11T07:11:48.603Z,100.00
2023-03-11T07:16:59.390Z,100.00
2023-03-11T07:22:06.782Z,100.00
2023-03-11T07:27:08.556Z,100.00
2023-03-11T07:32:11.567Z,100.00
2023-03-11T07:37:14.048Z,100.00
2023-03-11T07:42:15.951Z,100.00
2023-03-11T07:47:19.674Z,100.00
2023-03-11T07:52:21.460Z,99.99
2023-03-11T07:57:23.274Z,99.61
2023-03-11T08:02:26.413Z,99.46
2023-03-11T08:07:28.107Z,98.87
2023-03-11T08:12:29.805Z,97.98
2023-03-11T08:17:32.871Z,96.13
2023-03-11T08:22:34.608Z,95.75
2023-03-11T08:27:36.331Z,93.72
2023-03-11T08:32:39.411Z,92.91
2023-03-11T08:37:41.166Z,90.12
2023-03-11T08:42:42.844Z,62.61
2023-03-11T08:47:45.937Z,44.37
2023-03-11T08:52:47.707Z,38.27
2023-03-11T08:57:49.446Z,35.37
2023-03-11T09:02:52.500Z,32.99
2023-03-11T09:07:54.239Z,32.20
2023-03-11T09:12:55.972Z,30.41
2023-03-11T09:17:59.776Z,31.29
2023-03-11T09:23:01.615Z,33.97
2023-03-11T09:28:03.300Z,35.71
2023-03-11T09:33:06.347Z,40.79
2023-03-11T09:38:08.057Z,44.41
2023-03-11T09:43:14.866Z,41.68
2023-03-11T09:48:22.738Z,41.24
2023-03-11T09:53:29.125Z,37.02
2023-03-11T09:58:37.188Z,34.06
2023-03-11T10:03:40.290Z,33.24
2023-03-11T10:08:52.618Z,42.24
2023-03-11T10:14:00.503Z,40.70
2023-03-11T10:19:06.448Z,40.77
2023-03-11T10:24:17.040Z,37.78
2023-03-11T10:29:20.746Z,39.55
2023-03-11T10:34:26.536Z,33.32
2023-03-11T10:39:28.997Z,33.59
2023-03-11T10:44:32.599Z,30.72
2023-03-11T10:49:35.809Z,30.14
2023-03-11T10:54:41.632Z,33.95
2023-03-11T10:59:46.914Z,34.84
2023-03-11T11:05:05.504Z,34.43
2023-03-11T11:10:18.406Z,35.67
2023-03-11T11:15:22.081Z,34.90
2023-03-11T11:20:25.653Z,38.79
2023-03-11T11:25:30.141Z,44.28
2023-03-11T11:30:32.479Z,47.88
2023-03-11T11:35:35.585Z,50.37
2023-03-11T11:40:37.230Z,52.44
2023-03-11T11:45:39.806Z,52.23
2023-03-11T11:50:44.560Z,54.88
2023-03-11T11:55:49.225Z,53.70
2023-03-11T12:00:58.405Z,54.33
2023-03-11T12:06:02.848Z,54.60
2023-03-11T12:11:05.803Z,53.90
2023-03-11T12:16:12.800Z,53.61
2023-03-11T12:21:23.660Z,54.20
2023-03-11T12:26:26.383Z,53.81
2023-03-11T12:31:29.390Z,54.17
2023-03-11T12:36:33.996Z,53.46
2023-03-11T12:41:39.936Z,54.77
2023-03-11T12:47:02.963Z,54.05
2023-03-11T12:52:19.614Z,54.03
2023-03-11T12:57:32.454Z,53.86
2023-03-11T13:02:43.130Z,55.01
2023-03-11T13:07:50.994Z,54.03
2023-03-11T13:12:52.732Z,54.46
2023-03-11T13:18:01.414Z,55.51
2023-03-11T13:23:21.649Z,54.95
2023-03-11T13:28:44.069Z,54.52
2023-03-11T13:33:49.221Z,55.48
2023-03-11T13:39:22.131Z,55.97
2023-03-11T13:44:28.897Z,55.58
2023-03-11T13:49:33.701Z,54.65
2023-03-11T13:54:39.132Z,55.80
2023-03-11T13:59:40.838Z,56.21
2023-03-11T14:04:44.273Z,57.45
2023-03-11T14:09:47.360Z,58.47
2023-03-11T14:14:51.064Z,58.04
2023-03-11T14:20:04.635Z,58.92
2023-03-11T14:25:08.922Z,59.36
2023-03-11T14:30:18.636Z,58.87
2023-03-11T14:35:20.899Z,59.74
2023-03-11T14:40:25.893Z,58.75
2023-03-11T14:45:29.282Z,59.23
2023-03-11T14:50:32.585Z,60.58
2023-03-11T14:55:40.209Z,59.84
2023-03-11T15:00:43.582Z,60.74
2023-03-11T15:05:47.447Z,62.47
2023-03-11T15:11:04.858Z,63.18
2023-03-11T15:16:07.828Z,61.67
2023-03-11T15:21:13.566Z,62.58
2023-03-11T15:26:20.249Z,62.65
2023-03-11T15:31:40.282Z,62.92
2023-03-11T15:36:44.537Z,62.42
2023-03-11T15:41:48.397Z,63.30
2023-03-11T15:46:50.194Z,64.72
2023-03-11T15:51:51.882Z,64.68
2023-03-11T15:56:55.186Z,63.14
2023-03-11T16:01:56.890Z,63.23
2023-03-11T16:07:07.768Z,63.75
2023-03-11T16:12:14.663Z,72.31
2023-03-11T16:17:16.373Z,68.46
2023-03-11T16:22:19.424Z,63.72
2023-03-11T16:27:22.555Z,63.08
2023-03-11T16:32:24.398Z,63.60
2023-03-11T16:37:26.192Z,64.59
2023-03-11T16:42:29.236Z,65.20
2023-03-11T16:47:30.888Z,66.45
2023-03-11T16:52:32.669Z,66.46
2023-03-11T16:57:37.766Z,66.69
2023-03-11T17:02:39.563Z,67.96
2023-03-11T17:07:41.248Z,68.54
2023-03-11T17:12:44.293Z,67.78
2023-03-11T17:17:46.008Z,67.33
2023-03-11T17:22:47.667Z,67.43
2023-03-11T17:27:51.039Z,67.25
2023-03-11T17:32:52.762Z,67.33
2023-03-11T17:37:54.555Z,67.46
2023-03-11T17:42:57.626Z,67.43
2023-03-11T17:47:59.281Z,68.14
2023-03-11T17:53:00.986Z,68.46
2023-03-11T17:58:03.982Z,69.50
2023-03-11T18:03:05.631Z,69.87
2023-03-11T18:08:07.328Z,70.29
2023-03-11T18:13:10.382Z,70.60
2023-03-11T18:18:12.033Z,70.53
2023-03-11T18:23:13.692Z,70.85
2023-03-11T18:28:16.723Z,70.81
2023-03-11T18:33:18.458Z,71.45
2023-03-11T18:38:20.196Z,71.94
2023-03-11T18:43:23.263Z,71.77
2023-03-11T18:48:24.961Z,72.28
2023-03-11T18:53:26.747Z,72.23
2023-03-11T18:58:29.779Z,72.20
2023-03-11T19:03:31.489Z,72.26
2023-03-11T19:08:33.158Z,71.75
2023-03-11T19:13:46.565Z,72.14
2023-03-11T19:18:49.470Z,72.31
2023-03-11T19:23:54.903Z,72.74
2023-03-11T19:28:58.007Z,73.01
2023-03-11T19:33:59.910Z,73.21
2023-03-11T19:39:01.627Z,73.45
2023-03-11T19:44:04.699Z,74.22
2023-03-11T19:49:06.379Z,74.32
2023-03-11T19:54:08.073Z,74.49
2023-03-11T19:59:11.282Z,75.29
2023-03-11T20:04:14.923Z,75.65
2023-03-11T20:09:17.627Z,75.63
2023-03-11T20:14:20.711Z,75.35
2023-03-11T20:19:22.443Z,75.53
2023-03-11T20:24:24.270Z,75.40
2023-03-11T20:29:27.428Z,75.22
2023-03-11T20:34:29.363Z,74.51
2023-03-11T20:39:31.100Z,74.50
2023-03-11T20:44:34.148Z,74.48
2023-03-11T20:49:35.956Z,74.45
2023-03-11T20:54:37.643Z,74.20
2023-03-11T20:59:40.691Z,74.43
2023-03-11T21:04:44.017Z,73.95
2023-03-11T21:09:45.919Z,73.54
2023-03-11T21:14:49.083Z,73.45
2023-03-11T21:19:50.809Z,73.29
2023-03-11T21:24:52.937Z,73.03
2023-03-11T21:29:56.259Z,73.00
2023-03-11T21:34:58.382Z,73.20
2023-03-11T21:40:00.226Z,73.26
2023-03-11T21:45:03.823Z,73.40
2023-03-11T21:50:06.464Z,73.80
2023-03-11T21:55:08.962Z,73.70
2023-03-11T22:00:13.205Z,73.85
2023-03-11T22:05:15.794Z,73.63
2023-03-11T22:10:17.707Z,73.78
2023-03-11T22:15:21.012Z,73.57
2023-03-11T22:20:22.699Z,73.06
2023-03-11T22:25:24.344Z,73.32
2023-03-11T22:30:27.595Z,73.30
2023-03-11T22:35:29.388Z,73.23
2023-03-11T22:40:31.106Z,73.12
2023-03-11T22:45:34.117Z,72.84
2023-03-11T22:50:35.809Z,72.93
2023-03-11T22:55:38.988Z,72.90
2023-03-11T23:00:44.120Z,72.74
2023-03-11T23:05:46.813Z,72.70
2023-03-11T23:10:48.524Z,72.90
2023-03-11T23:15:51.601Z,72.98
2023-03-11T23:20:53.398Z,73.17
2023-03-11T23:25:55.158Z,72.99
2023-03-11T23:31:03.213Z,73.13
2023-03-11T23:36:06.521Z,73.15
2023-03-11T23:41:09.099Z,72.91
2023-03-11T23:46:12.311Z,73.07
2023-03-11T23:51:14.144Z,73.67
2023-03-11T23:56:19.676Z,73.94
